Time,TemperatureF,DewpointF,PressureIn,WindDirection,WindDirectionDegrees,WindSpeedMPH,WindSpeedGustMPH,Humidity,HourlyPrecipIn,Conditions,Clouds,dailyrainin,SoftwareType,DateUTC
2013-02-25 00:06:00,31.3,25.6,29.82,East,90,0.0,-999.0,79,-99.99,,,0.00,Acu-Link.com,2013-02-25 05:06:00,
2013-02-25 00:21:00,30.6,24.6,29.81,East,90,0.0,-999.0,78,-99.99,,,0.00,Acu-Link.com,2013-02-25 05:21:00,
2013-02-25 00:37:00,30.6,25.5,29.81,ENE,67,0.0,-999.0,81,-99.99,,,0.00,Acu-Link.com,2013-02-25 05:37:00,
2013-02-25 00:52:00,30.4,25.3,29.80,ENE,67,0.0,-999.0,81,-99.99,,,0.00,Acu-Link.com,2013-02-25 05:52:00,
2013-02-25 01:07:00,29.8,25.6,29.82,ENE,67,0.0,-999.0,84,-99.99,,,0.00,Acu-Link.com,2013-02-25 06:07:00,
2013-02-25 01:23:00,29.3,25.1,29.82,NNW,337,1.7,-999.0,84,-99.99,,,0.00,Acu-Link.com,2013-02-25 06:23:00,
2013-02-25 01:38:00,29.1,26.3,29.81,East,90,0.0,-999.0,89,-99.99,,,0.00,Acu-Link.com,2013-02-25 06:38:00,
2013-02-25 01:53:00,29.1,26.3,29.81,ESE,112,0.0,-999.0,89,-99.99,,,0.00,Acu-Link.com,2013-02-25 06:53:00,
2013-02-25 02:08:00,29.1,25.4,29.80,ENE,67,1.1,-999.0,86,-99.99,,,0.00,Acu-Link.com,2013-02-25 07:08:00,
2013-02-25 02:24:00,29.7,26.0,29.79,East,90,1.1,-999.0,86,-99.99,,,0.00,Acu-Link.com,2013-02-25 07:24:00,
2013-02-25 02:39:00,29.8,26.4,29.78,ESE,112,1.7,-999.0,87,-99.99,,,0.00,Acu-Link.com,2013-02-25 07:39:00,
2013-02-25 02:54:00,29.8,26.1,29.79,ESE,112,0.0,-999.0,86,-99.99,,,0.00,Acu-Link.com,2013-02-25 07:54:00,
2013-02-25 03:09:00,30.0,26.3,29.80,ESE,112,0.0,-999.0,86,-99.99,,,0.00,Acu-Link.com,2013-02-25 08:09:00,
2013-02-25 03:25:00,30.0,26.0,29.80,NNE,22,0.0,-999.0,85,-99.99,,,0.00,Acu-Link.com,2013-02-25 08:25:00,
2013-02-25 03:40:00,29.8,26.4,29.80,East,90,0.0,-999.0,87,-99.99,,,0.00,Acu-Link.com,2013-02-25 08:40:00,
2013-02-25 03:55:00,29.7,26.6,29.79,ESE,112,0.0,-999.0,88,-99.99,,,0.00,Acu-Link.com,2013-02-25 08:55:00,
2013-02-25 04:17:00,29.8,26.7,29.79,ESE,112,0.0,-999.0,88,-99.99,,,0.00,Acu-Link.com,2013-02-25 09:17:00,
2013-02-25 04:33:00,30.0,26.6,29.78,ESE,112,0.0,-999.0,87,-99.99,,,0.00,Acu-Link.com,2013-02-25 09:33:00,
2013-02-25 04:48:00,30.0,26.3,29.79,East,90,0.0,-999.0,86,-99.99,,,0.00,Acu-Link.com,2013-02-25 09:48:00,
2013-02-25 05:03:00,30.2,26.8,29.79,SSE,157,0.0,-999.0,87,-99.99,,,0.00,Acu-Link.com,2013-02-25 10:03:00,
2013-02-25 05:18:00,29.8,26.4,29.80,North,0,0.0,-999.0,87,-99.99,,,0.00,Acu-Link.com,2013-02-25 10:18:00,
2013-02-25 05:33:00,30.2,27.4,29.80,ENE,67,0.0,-999.0,89,-99.99,,,0.00,Acu-Link.com,2013-02-25 10:33:00,
2013-02-25 05:48:00,30.4,27.3,29.81,ENE,67,0.0,-999.0,88,-99.99,,,0.00,Acu-Link.com,2013-02-25 10:48:00,
2013-02-25 06:03:00,30.2,27.1,29.80,ENE,67,0.0,-999.0,88,-99.99,,,0.00,Acu-Link.com,2013-02-25 11:03:00,
2013-02-25 06:18:00,30.4,27.6,29.81,East,90,1.1,-999.0,89,-99.99,,,0.00,Acu-Link.com,2013-02-25 11:18:00,
2013-02-25 06:34:00,30.4,27.3,29.81,ESE,112,1.7,-999.0,88,-99.99,,,0.00,Acu-Link.com,2013-02-25 11:34:00,
2013-02-25 06:49:00,30.7,27.3,29.81,SE,135,0.0,-999.0,87,-99.99,,,0.00,Acu-Link.com,2013-02-25 11:49:00,
2013-02-25 07:04:00,30.7,27.3,29.82,NNW,337,0.0,-999.0,87,-99.99,,,0.00,Acu-Link.com,2013-02-25 12:04:00,
2013-02-25 07:19:00,30.7,27.3,29.82,NW,315,0.0,-999.0,87,-99.99,,,0.00,Acu-Link.com,2013-02-25 12:19:00,
2013-02-25 07:35:00,30.7,27.6,29.82,East,90,0.0,-999.0,88,-99.99,,,0.00,Acu-Link.com,2013-02-25 12:35:00,
2013-02-25 08:05:00,31.5,27.8,29.83,SE,135,1.1,-999.0,86,-99.99,,,0.00,Acu-Link.com,2013-02-25 13:05:00,
2013-02-25 08:20:00,32.5,27.6,29.83,SSE,157,1.7,-999.0,82,-99.99,,,0.00,Acu-Link.com,2013-02-25 13:20:00,
2013-02-25 08:36:00,33.4,27.6,29.84,SSE,157,1.7,-999.0,79,-99.99,,,0.00,Acu-Link.com,2013-02-25 13:36:00,
2013-02-25 08:51:00,34.9,28.8,29.84,East,90,0.0,-999.0,78,-99.99,,,0.00,Acu-Link.com,2013-02-25 13:51:00,
2013-02-25 09:06:00,36.0,27.9,29.83,East,90,2.2,-999.0,72,-99.99,,,0.00,Acu-Link.com,2013-02-25 14:06:00,
2013-02-25 09:21:00,36.9,28.4,29.82,NE,45,2.2,-999.0,71,-99.99,,,0.00,Acu-Link.com,2013-02-25 14:21:00,
2013-02-25 09:37:00,37.8,27.8,29.81,NE,45,3.2,-999.0,67,-99.99,,,0.00,Acu-Link.com,2013-02-25 14:37:00,
2013-02-25 09:52:00,39.0,28.6,29.82,NNW,337,2.2,-999.0,66,-99.99,,,0.00,Acu-Link.com,2013-02-25 14:52:00,
2013-02-25 10:07:00,39.9,28.7,29.82,ENE,67,4.2,-999.0,64,-99.99,,,0.00,Acu-Link.com,2013-02-25 15:07:00,
2013-02-25 10:23:00,40.6,28.6,29.82,NE,45,2.2,-999.0,62,-99.99,,,0.00,Acu-Link.com,2013-02-25 15:23:00,
2013-02-25 10:38:00,41.5,28.7,29.82,East,90,2.2,-999.0,60,-99.99,,,0.00,Acu-Link.com,2013-02-25 15:38:00,
2013-02-25 10:53:00,42.4,27.8,29.81,NNE,22,4.7,-999.0,56,-99.99,,,0.00,Acu-Link.com,2013-02-25 15:53:00,
2013-02-25 11:08:00,42.8,28.2,29.81,NNE,22,2.7,-999.0,56,-99.99,,,0.00,Acu-Link.com,2013-02-25 16:08:00,
2013-02-25 11:23:00,44.4,28.8,29.80,East,90,2.7,-999.0,54,-99.99,,,0.00,Acu-Link.com,2013-02-25 16:23:00,
2013-02-25 11:38:00,45.0,28.9,29.80,ENE,67,4.2,-999.0,53,-99.99,,,0.00,Acu-Link.com,2013-02-25 16:38:00,
2013-02-25 11:53:00,45.1,29.0,29.80,NNE,22,2.7,-999.0,53,-99.99,,,0.00,Acu-Link.com,2013-02-25 16:53:00,
2013-02-25 12:09:00,46.0,29.4,29.79,NNE,22,3.7,-999.0,52,-99.99,,,0.00,Acu-Link.com,2013-02-25 17:09:00,
2013-02-25 12:24:00,46.2,29.1,29.77,East,90,2.7,-999.0,51,-99.99,,,0.00,Acu-Link.com,2013-02-25 17:24:00,
2013-02-25 12:39:00,46.8,30.1,29.76,NNW,337,4.7,-999.0,52,-99.99,,,0.00,Acu-Link.com,2013-02-25 17:39:00,
2013-02-25 12:54:00,48.6,30.3,29.77,ESE,112,4.2,-999.0,49,-99.99,,,0.00,Acu-Link.com,2013-02-25 17:54:00,
2013-02-25 13:09:00,52.2,30.4,29.75,NE,45,3.7,-999.0,43,-99.99,,,0.00,Acu-Link.com,2013-02-25 18:09:00,
2013-02-25 13:25:00,57.2,32.5,29.75,ESE,112,3.7,-999.0,39,-99.99,,,0.00,Acu-Link.com,2013-02-25 18:25:00,
2013-02-25 13:40:00,59.5,31.8,29.74,NNW,337,4.7,-999.0,35,-99.99,,,0.00,Acu-Link.com,2013-02-25 18:40:00,
2013-02-25 13:55:00,59.4,31.0,29.73,ENE,67,2.7,-999.0,34,-99.99,,,0.00,Acu-Link.com,2013-02-25 18:55:00,
2013-02-25 14:10:00,59.7,31.3,29.74,ENE,67,3.7,-999.0,34,-99.99,,,0.00,Acu-Link.com,2013-02-25 19:10:00,
2013-02-25 14:26:00,60.4,31.2,29.73,North,0,5.8,-999.0,33,-99.99,,,0.00,Acu-Link.com,2013-02-25 19:26:00,
2013-02-25 14:41:00,62.4,30.6,29.73,East,90,1.7,-999.0,30,-99.99,,,0.00,Acu-Link.com,2013-02-25 19:41:00,
2013-02-25 14:56:00,62.2,31.2,29.72,NNW,337,2.2,-999.0,31,-99.99,,,0.00,Acu-Link.com,2013-02-25 19:56:00,
2013-02-25 15:11:00,62.1,31.1,29.72,NE,45,2.7,-999.0,31,-99.99,,,0.00,Acu-Link.com,2013-02-25 20:11:00,
2013-02-25 15:27:00,61.9,30.9,29.70,NW,315,3.7,-999.0,31,-99.99,,,0.00,Acu-Link.com,2013-02-25 20:27:00,
2013-02-25 15:42:00,62.6,29.9,29.69,NE,45,2.7,-999.0,29,-99.99,,,0.00,Acu-Link.com,2013-02-25 20:42:00,
2013-02-25 15:57:00,58.8,31.2,29.68,NNE,22,5.8,-999.0,35,-99.99,,,0.00,Acu-Link.com,2013-02-25 20:57:00,
2013-02-25 16:12:00,60.3,31.1,29.68,ENE,67,4.7,-999.0,33,-99.99,,,0.00,Acu-Link.com,2013-02-25 21:12:00,
2013-02-25 16:27:00,60.3,31.8,29.68,ENE,67,3.2,-999.0,34,-99.99,,,0.00,Acu-Link.com,2013-02-25 21:27:00,
2013-02-25 16:43:00,58.5,33.0,29.67,East,90,1.7,-999.0,38,-99.99,,,0.00,Acu-Link.com,2013-02-25 21:43:00,
2013-02-25 16:58:00,57.7,32.9,29.67,ENE,67,3.7,-999.0,39,-99.99,,,0.00,Acu-Link.com,2013-02-25 21:58:00,
2013-02-25 17:13:00,57.4,33.3,29.65,ESE,112,2.2,-999.0,40,-99.99,,,0.00,Acu-Link.com,2013-02-25 22:13:00,
2013-02-25 17:28:00,57.4,33.9,29.65,NNW,337,3.2,-999.0,41,-99.99,,,0.00,Acu-Link.com,2013-02-25 22:28:00,
2013-02-25 17:44:00,57.4,33.9,29.64,ENE,67,3.2,-999.0,41,-99.99,,,0.00,Acu-Link.com,2013-02-25 22:44:00,
2013-02-25 17:59:00,55.9,34.3,29.63,East,90,3.2,-999.0,44,-99.99,,,0.00,Acu-Link.com,2013-02-25 22:59:00,
2013-02-25 18:14:00,54.7,34.3,29.62,NE,45,1.7,-999.0,46,-99.99,,,0.00,Acu-Link.com,2013-02-25 23:14:00,
2013-02-25 18:29:00,53.2,33.5,29.63,NNE,22,0.0,-999.0,47,-99.99,,,0.00,Acu-Link.com,2013-02-25 23:29:00,
2013-02-25 18:45:00,51.6,34.1,29.63,NE,45,0.0,-999.0,51,-99.99,,,0.00,Acu-Link.com,2013-02-25 23:45:00,
2013-02-25 19:00:00,50.0,34.5,29.62,East,90,0.0,-999.0,55,-99.99,,,0.00,Acu-Link.com,2013-02-26 00:00:00,
2013-02-25 19:15:00,48.9,35.6,29.62,NNE,22,0.0,-999.0,60,-99.99,,,0.00,Acu-Link.com,2013-02-26 00:15:00,
2013-02-25 19:30:00,47.8,35.4,29.62,SSE,157,1.7,-999.0,62,-99.99,,,0.00,Acu-Link.com,2013-02-26 00:30:00,
2013-02-25 19:46:00,46.8,35.7,29.61,SSE,157,1.1,-999.0,65,-99.99,,,0.00,Acu-Link.com,2013-02-26 00:46:00,
2013-02-25 20:01:00,45.7,35.0,29.61,NNW,337,0.0,-999.0,66,-99.99,,,0.00,Acu-Link.com,2013-02-26 01:01:00,
2013-02-25 20:17:00,45.3,35.0,29.62,SSE,157,0.0,-999.0,67,-99.99,,,0.00,Acu-Link.com,2013-02-26 01:17:00,
2013-02-25 20:32:00,44.8,34.9,29.61,East,90,0.0,-999.0,68,-99.99,,,0.00,Acu-Link.com,2013-02-26 01:32:00,
2013-02-25 20:47:00,44.6,34.3,29.61,NNE,22,2.2,-999.0,67,-99.99,,,0.00,Acu-Link.com,2013-02-26 01:47:00,
2013-02-25 21:02:00,45.0,34.3,29.61,ENE,67,0.0,-999.0,66,-99.99,,,0.00,Acu-Link.com,2013-02-26 02:02:00,
2013-02-25 21:18:00,45.7,34.2,29.61,SSE,157,0.0,-999.0,64,-99.99,,,0.00,Acu-Link.com,2013-02-26 02:18:00,
2013-02-25 21:33:00,46.2,34.3,29.61,East,90,1.7,-999.0,63,-99.99,,,0.00,Acu-Link.com,2013-02-26 02:33:00,
2013-02-25 21:48:00,46.9,35.4,29.59,South,180,1.1,-999.0,64,-99.99,,,0.00,Acu-Link.com,2013-02-26 02:48:00,
2013-02-25 22:03:00,46.9,35.0,29.59,ESE,112,0.0,-999.0,63,-99.99,,,0.00,Acu-Link.com,2013-02-26 03:03:00,
2013-02-25 22:19:00,47.1,33.9,29.57,WNW,292,2.2,-999.0,60,-99.99,,,0.00,Acu-Link.com,2013-02-26 03:19:00,
2013-02-25 22:34:00,47.1,33.5,29.57,East,90,0.0,-999.0,59,-99.99,,,0.00,Acu-Link.com,2013-02-26 03:34:00,
2013-02-25 22:49:00,47.5,33.5,29.57,ESE,112,1.1,-999.0,58,-99.99,,,0.00,Acu-Link.com,2013-02-26 03:49:00,
2013-02-25 23:04:00,47.5,34.3,29.55,South,180,0.0,-999.0,60,-99.99,,,0.00,Acu-Link.com,2013-02-26 04:04:00,
2013-02-25 23:19:00,47.7,34.5,29.57,South,180,0.0,-999.0,60,-99.99,,,0.00,Acu-Link.com,2013-02-26 04:19:00,
2013-02-25 23:35:00,47.5,35.5,29.56,South,180,0.0,-999.0,63,-99.99,,,0.00,Acu-Link.com,2013-02-26 04:35:00,
2013-02-25 23:50:00,47.3,35.4,29.54,ENE,67,1.1,-999.0,63,-99.99,,,0.00,Acu-Link.com,2013-02-26 04:50:00,